Time;durP1;ratioP1;P1;durP2;ratioP2;P2;SDS_P1;SDS_P2;PMS_P1;PMS_P2;Temp;Humidity;BMP_temperature;BMP_pressure;BME280_temperature;BME280_humidity;BME280_pressure;Samples;Min_cycle;Max_cycle;Signal;HPM_P1;HPM_P2
2021/03/22 00:01:26;;;;;;;17.47;5.83;;;;;;;6.32;100.00;98415.53;4994550;28;20239;-73
2021/03/22 00:03:53;;;;;;;18.80;6.13;;;;;;;6.28;100.00;98415.03;4994860;28;20634;-72
2021/03/22 00:06:20;;;;;;;24.03;6.27;;;;;;;6.34;100.00;98418.88;4994825;28;20223;-71
2021/03/22 00:08:48;;;;;;;18.73;6.30;;;;;;;6.25;100.00;98419.84;4990350;28;20292;-71
2021/03/22 00:11:15;;;;;;;22.70;6.00;;;;;;;6.15;100.00;98419.16;4994540;28;20245;-72
2021/03/22 00:13:41;;;;;;;19.33;6.40;;;;;;;6.42;100.00;98414.41;4991832;28;20205;-71
2021/03/22 00:16:09;;;;;;;24.97;5.67;;;;;;;6.21;100.00;98418.50;4994429;28;20204;-71
2021/03/22 00:18:37;;;;;;;26.90;6.13;;;;;;;6.56;100.00;98416.41;4991981;28;20235;-71
2021/03/22 00:21:06;;;;;;;16.03;6.60;;;;;;;6.42;100.00;98424.16;4994072;28;20233;-71
2021/03/22 00:23:32;;;;;;;16.73;5.57;;;;;;;6.33;100.00;98417.19;4993449;28;20209;-72
2021/03/22 00:26:00;;;;;;;20.23;5.63;;;;;;;6.45;100.00;98418.53;4994425;28;20228;-72
2021/03/22 00:28:27;;;;;;;24.90;5.77;;;;;;;6.80;100.00;98416.34;4993611;28;20208;-72
2021/03/22 00:30:55;;;;;;;22.10;5.53;;;;;;;6.65;100.00;98418.03;4994297;28;20228;-72
2021/03/22 00:33:23;;;;;;;16.63;5.33;;;;;;;6.59;100.00;98418.69;4991512;28;20677;-72
2021/03/22 00:35:50;;;;;;;18.27;6.60;;;;;;;6.70;100.00;98412.25;4994182;28;20196;-72
2021/03/22 00:38:17;;;;;;;14.70;5.30;;;;;;;6.70;100.00;98420.19;4989775;28;20208;-72
2021/03/22 00:40:46;;;;;;;23.70;5.70;;;;;;;6.67;100.00;98424.00;4991078;28;20232;-72
2021/03/22 00:43:14;;;;;;;21.87;5.83;;;;;;;6.74;100.00;98427.66;4991934;28;20216;-72
2021/03/22 00:45:41;;;;;;;21.00;5.17;;;;;;;6.81;100.00;98427.81;4992519;28;20224;-72
2021/03/22 00:48:08;;;;;;;21.53;5.70;;;;;;;6.85;100.00;98418.53;4994558;28;20209;-72
2021/03/22 00:50:37;;;;;;;14.67;5.37;;;;;;;6.61;100.00;98418.53;4991507;28;20236;-72
2021/03/22 00:53:05;;;;;;;14.67;4.67;;;;;;;6.60;100.00;98423.00;4990063;28;20208;-72
2021/03/22 00:55:32;;;;;;;19.23;5.07;;;;;;;6.50;100.00;98414.38;4986323;28;20731;-72
2021/03/22 00:57:59;;;;;;;14.70;4.50;;;;;;;6.59;100.00;98409.91;4993181;28;20240;-72
2021/03/22 01:00:30;;;;;;;19.90;6.40;;;;;;;6.65;100.00;98412.72;4994141;28;20239;-72
2021/03/22 01:02:57;;;;;;;23.37;5.33;;;;;;;6.91;100.00;98413.34;4988281;28;20204;-72
2021/03/22 01:05:25;;;;;;;22.33;5.87;;;;;;;6.78;100.00;98409.56;4993468;28;20236;-72
2021/03/22 01:07:52;;;;;;;19.90;5.13;;;;;;;6.62;100.00;98405.13;4992328;28;20208;-72
2021/03/22 01:10:27;;;;;;;16.50;4.97;;;;;;;6.68;100.00;98406.25;4993394;28;20242;-72
2021/03/22 01:12:54;;;;;;;13.73;4.63;;;;;;;6.73;100.00;98401.28;4985557;28;20205;-72
2021/03/22 01:15:21;;;;;;;18.63;5.23;;;;;;;6.67;100.00;98397.50;4993045;28;20293;-72
2021/03/22 01:17:49;;;;;;;19.07;5.37;;;;;;;6.67;100.00;98392.19;4993849;28;20201;-72
2021/03/22 01:20:21;;;;;;;20.17;5.07;;;;;;;6.84;100.00;98396.47;4990176;28;20314;-72
2021/03/22 01:22:48;;;;;;;19.53;4.67;;;;;;;6.66;100.00;98401.13;4991252;28;20211;-72
2021/03/22 01:25:14;;;;;;;18.83;5.10;;;;;;;6.74;100.00;98387.84;4992924;28;20721;-72
2021/03/22 01:27:42;;;;;;;27.07;4.87;;;;;;;6.90;100.00;98393.13;4991637;28;20217;-72
2021/03/22 01:30:14;;;;;;;19.80;4.40;;;;;;;6.57;100.00;98391.53;4987953;28;20223;-72
2021/03/22 01:32:41;;;;;;;16.83;4.10;;;;;;;6.66;100.00;98379.91;4993513;28;20212;-72
2021/03/22 01:35:10;;;;;;;14.97;4.40;;;;;;;6.80;100.00;98392.50;4989355;28;20256;-71
2021/03/22 01:37:37;;;;;;;18.97;4.33;;;;;;;6.75;100.00;98384.19;4991933;28;20513;-72
2021/03/22 01:40:06;;;;;;;20.73;4.73;;;;;;;6.78;100.00;98389.19;4993027;28;20776;-72
2021/03/22 01:42:48;;;;;;;19.93;5.00;;;;;;;6.94;100.00;98383.84;4992954;28;20629;-72
2021/03/22 01:45:15;;;;;;;19.07;4.53;;;;;;;6.86;100.00;98388.34;4991168;28;20233;-72
2021/03/22 01:47:41;;;;;;;13.73;4.37;;;;;;;6.52;100.00;98383.25;4991822;28;20251;-72
2021/03/22 01:50:12;;;;;;;18.30;4.30;;;;;;;6.95;100.00;98385.50;4990917;28;20232;-72
2021/03/22 01:52:42;;;;;;;18.17;4.93;;;;;;;6.64;100.00;98379.25;4991876;28;20204;-72
2021/03/22 01:55:12;;;;;;;20.33;4.57;;;;;;;6.88;100.00;98373.91;4993171;28;20209;-72
2021/03/22 01:57:40;;;;;;;15.97;4.57;;;;;;;6.72;100.00;98376.59;4991278;28;20248;-72
2021/03/22 02:00:13;;;;;;;21.53;4.00;;;;;;;6.74;100.00;98381.72;4993102;28;20235;-72
2021/03/22 02:02:42;;;;;;;15.07;3.53;;;;;;;6.77;100.00;98384.03;4992125;28;20236;-71
2021/03/22 02:05:13;;;;;;;21.07;4.53;;;;;;;6.62;100.00;98380.41;4988737;28;20252;-72
2021/03/22 02:07:40;;;;;;;25.47;4.63;;;;;;;6.58;100.00;98379.09;4992510;28;20208;-73
2021/03/22 02:10:08;;;;;;;17.00;4.30;;;;;;;6.80;100.00;98379.22;4992947;28;20241;-72
2021/03/22 02:12:35;;;;;;;13.90;3.57;;;;;;;6.81;100.00;98375.56;4992874;28;20216;-72
2021/03/22 02:15:03;;;;;;;16.10;4.03;;;;;;;6.75;100.00;98370.94;4992744;28;20315;-73
2021/03/22 02:17:36;;;;;;;15.23;3.77;;;;;;;6.67;100.00;98378.94;4992163;28;20215;-73
2021/03/22 02:20:48;;;;;;;16.47;4.90;;;;;;;6.57;100.00;98385.38;4984646;28;20229;-72
2021/03/22 02:24:05;;;;;;;15.50;4.00;;;;;;;6.66;100.00;98387.84;4988234;28;20212;-73
2021/03/22 02:27:08;;;;;;;16.23;4.03;;;;;;;6.58;100.00;98379.09;4990568;28;20274;-72
2021/03/22 02:29:49;;;;;;;19.43;4.60;;;;;;;6.63;100.00;98390.84;4989694;28;20243;-72
2021/03/22 02:32:29;;;;;;;25.07;4.57;;;;;;;6.60;100.00;98385.88;4993175;28;20205;-73
2021/03/22 02:34:58;;;;;;;19.03;3.97;;;;;;;6.43;100.00;98391.34;4995815;28;20208;-73
2021/03/22 02:37:43;;;;;;;16.57;4.10;;;;;;;5.99;100.00;98400.59;4997063;28;20686;-72
2021/03/22 02:40:18;;;;;;;17.90;4.33;;;;;;;6.43;100.00;98401.94;4990726;28;20228;-72
2021/03/22 02:42:47;;;;;;;17.23;3.87;;;;;;;6.20;100.00;98400.97;4983540;28;20362;-72
2021/03/22 02:45:23;;;;;;;19.10;3.73;;;;;;;6.16;100.00;98396.97;4989911;28;20251;-72
2021/03/22 02:47:50;;;;;;;16.87;4.00;;;;;;;6.44;100.00;98399.13;4985592;28;20215;-72
2021/03/22 02:50:20;;;;;;;17.53;4.13;;;;;;;6.38;100.00;98385.72;4991449;28;20279;-72
2021/03/22 02:53:14;;;;;;;15.23;3.53;;;;;;;6.45;100.00;98398.13;4991719;28;20201;-72
2021/03/22 02:55:53;;;;;;;13.57;3.43;;;;;;;6.56;100.00;98399.66;4962024;28;20196;-72
2021/03/22 02:58:23;;;;;;;14.90;3.90;;;;;;;6.38;100.00;98393.66;4991278;28;20209;-73
2021/03/22 03:00:59;;;;;;;22.83;3.87;;;;;;;6.48;100.00;98396.97;4985361;28;20228;-72
2021/03/22 03:03:27;;;;;;;19.97;4.00;;;;;;;6.46;100.00;98401.63;4987917;28;20212;-72
2021/03/22 03:05:55;;;;;;;16.70;3.57;;;;;;;6.40;100.00;98397.00;4991965;28;20231;-72
2021/03/22 03:08:32;;;;;;;19.60;3.43;;;;;;;6.25;100.00;98391.50;4989307;28;20205;-73
2021/03/22 03:11:00;;;;;;;25.43;4.00;;;;;;;6.55;100.00;98396.16;4991969;28;20236;-72
2021/03/22 03:13:27;;;;;;;17.13;3.40;;;;;;;6.40;100.00;98408.41;4989020;28;20209;-72
2021/03/22 03:15:54;;;;;;;19.30;3.43;;;;;;;6.50;100.00;98401.13;4989440;28;20208;-72
2021/03/22 03:18:20;;;;;;;27.50;3.73;;;;;;;6.37;100.00;98406.09;4991580;28;20613;-72
2021/03/22 03:20:47;;;;;;;23.23;3.47;;;;;;;6.60;100.00;98404.44;4989292;28;20229;-72
2021/03/22 03:23:16;;;;;;;17.23;3.53;;;;;;;6.38;100.00;98404.28;4991564;28;20217;-72
2021/03/22 03:25:42;;;;;;;19.00;3.60;;;;;;;6.30;100.00;98412.22;4984109;28;20227;-72
2021/03/22 03:28:10;;;;;;;16.37;2.63;;;;;;;6.24;100.00;98416.34;4991713;28;20210;-72
2021/03/22 03:30:38;;;;;;;14.30;3.17;;;;;;;6.41;100.00;98418.03;4990782;28;20224;-72
2021/03/22 03:33:06;;;;;;;13.67;3.97;;;;;;;6.27;100.00;98418.69;4991759;28;20243;-72
2021/03/22 03:35:35;;;;;;;20.77;3.40;;;;;;;6.34;99.39;98424.97;4989472;28;20202;-73
2021/03/22 03:38:02;;;;;;;17.87;3.53;;;;;;;6.26;100.00;98425.00;4992445;28;20236;-73
2021/03/22 03:40:32;;;;;;;20.87;4.07;;;;;;;6.37;98.56;98411.41;4994107;28;20308;-73
2021/03/22 03:42:59;;;;;;;10.97;2.70;;;;;;;6.44;98.96;98427.50;4995338;28;20209;-73
2021/03/22 03:45:28;;;;;;;10.57;2.97;;;;;;;6.42;100.00;98422.34;4995673;28;20717;-73
2021/03/22 03:47:55;;;;;;;11.60;2.93;;;;;;;6.27;100.00;98431.09;4994106;28;20728;-73
2021/03/22 03:50:24;;;;;;;17.87;3.80;;;;;;;6.35;100.00;98429.28;4993953;28;20639;-73
2021/03/22 03:52:51;;;;;;;12.67;3.17;;;;;;;6.19;100.00;98431.09;4992313;28;20275;-72
2021/03/22 03:55:19;;;;;;;17.20;3.80;;;;;;;6.12;100.00;98435.38;4994938;28;20200;-72
2021/03/22 03:57:47;;;;;;;17.70;3.90;;;;;;;6.18;100.00;98430.25;4993626;28;20208;-72
2021/03/22 04:00:19;;;;;;;21.63;4.03;;;;;;;6.29;100.00;98422.00;4993004;28;20591;-72
2021/03/22 04:02:46;;;;;;;14.10;3.30;;;;;;;6.36;100.00;98424.81;4987594;28;20287;-72
2021/03/22 04:05:14;;;;;;;15.27;3.17;;;;;;;6.28;100.00;98424.81;4992055;28;20210;-72
2021/03/22 04:07:41;;;;;;;18.67;3.47;;;;;;;6.27;100.00;98424.00;4986547;28;20259;-72
2021/03/22 04:10:08;;;;;;;17.57;3.60;;;;;;;6.00;100.00;98426.91;4988394;28;20264;-72
2021/03/22 04:12:35;;;;;;;14.97;3.30;;;;;;;6.28;100.00;98428.28;4991995;28;20212;-72
2021/03/22 04:15:03;;;;;;;23.47;3.73;;;;;;;6.09;100.00;98438.38;4989780;28;20568;-72
2021/03/22 04:17:30;;;;;;;12.73;3.03;;;;;;;6.22;100.00;98436.06;4993832;28;20204;-72
2021/03/22 04:19:57;;;;;;;16.83;3.57;;;;;;;5.98;100.00;98426.25;4994264;28;20273;-72
2021/03/22 04:22:23;;;;;;;14.10;3.40;;;;;;;6.18;100.00;98427.63;4994293;28;20212;-72
2021/03/22 04:24:50;;;;;;;18.43;3.20;;;;;;;6.33;100.00;98431.28;4992496;28;20206;-72
2021/03/22 04:27:17;;;;;;;17.07;3.17;;;;;;;6.33;100.00;98430.44;4992794;28;20229;-71
2021/03/22 04:29:44;;;;;;;16.23;3.77;;;;;;;6.22;100.00;98430.75;4987785;28;20228;-72
2021/03/22 04:32:12;;;;;;;16.53;3.87;;;;;;;6.26;100.00;98432.94;4994196;28;20212;-72
2021/03/22 04:34:39;;;;;;;11.97;3.23;;;;;;;6.19;100.00;98436.41;4992880;28;20665;-72
2021/03/22 04:37:06;;;;;;;20.13;3.43;;;;;;;6.40;100.00;98432.25;4994085;28;20204;-72
2021/03/22 04:39:33;;;;;;;13.57;3.57;;;;;;;6.28;100.00;98438.88;4993799;28;20236;-72
2021/03/22 04:42:00;;;;;;;15.10;3.47;;;;;;;6.33;100.00;98441.88;4989069;28;20874;-72
2021/03/22 04:44:27;;;;;;;13.27;3.10;;;;;;;6.63;100.00;98429.78;4994181;28;20213;-72
2021/03/22 04:46:54;;;;;;;19.80;4.33;;;;;;;6.56;100.00;98440.25;4993940;28;20285;-72
2021/03/22 04:49:21;;;;;;;16.33;4.00;;;;;;;6.12;100.00;98446.81;4993061;28;20675;-72
2021/03/22 04:51:48;;;;;;;20.30;4.50;;;;;;;6.29;100.00;98442.38;4988623;28;20734;-72
2021/03/22 04:54:15;;;;;;;21.07;3.33;;;;;;;6.35;100.00;98449.69;4994675;28;20220;-72
2021/03/22 04:56:42;;;;;;;13.40;3.87;;;;;;;6.33;100.00;98441.03;4994102;28;20202;-72
2021/03/22 04:59:09;;;;;;;14.23;3.23;;;;;;;6.14;100.00;98442.16;4993897;28;20217;-72
2021/03/22 05:01:35;;;;;;;11.17;2.77;;;;;;;6.13;100.00;98444.97;4988748;28;20212;-72
2021/03/22 05:04:02;;;;;;;17.20;4.17;;;;;;;6.33;99.54;98443.69;4993090;28;20296;-72
2021/03/22 05:06:30;;;;;;;19.10;3.27;;;;;;;6.44;98.78;98438.09;4992140;28;20225;-72
2021/03/22 05:08:57;;;;;;;14.23;3.23;;;;;;;6.15;97.59;98443.81;4994489;28;20204;-72
2021/03/22 05:11:24;;;;;;;9.93;3.47;;;;;;;6.13;97.98;98451.13;4992271;28;20229;-72
2021/03/22 05:13:51;;;;;;;13.60;3.03;;;;;;;6.23;97.75;98445.66;4993677;28;20200;-72
2021/03/22 05:16:18;;;;;;;14.50;3.00;;;;;;;6.13;97.16;98452.94;4988865;28;20204;-72
2021/03/22 05:18:45;;;;;;;12.60;2.63;;;;;;;6.35;95.58;98460.28;4992622;28;20296;-72
2021/03/22 05:21:12;;;;;;;15.30;2.67;;;;;;;6.22;92.59;98466.06;4983419;28;20255;-72
2021/03/22 05:23:40;;;;;;;12.83;2.00;;;;;;;6.38;93.14;98457.28;4993183;28;20209;-72
2021/03/22 05:26:08;;;;;;;9.53;3.00;;;;;;;6.09;93.52;98468.31;4992174;28;20231;-72
2021/03/22 05:28:36;;;;;;;12.00;3.33;;;;;;;6.27;92.53;98469.03;4994679;28;20209;-72
2021/03/22 05:31:03;;;;;;;9.70;2.27;;;;;;;6.33;92.66;98468.38;5001315;28;20221;-72
2021/03/22 05:33:30;;;;;;;20.63;3.50;;;;;;;6.27;92.07;98466.41;4995990;28;20213;-72
2021/03/22 05:36:00;;;;;;;23.27;3.23;;;;;;;6.39;91.61;98473.03;4994753;28;20331;-72
2021/03/22 05:38:27;;;;;;;11.07;2.17;;;;;;;6.48;90.51;98482.66;5000632;28;20212;-72
2021/03/22 05:40:57;;;;;;;13.27;2.40;;;;;;;6.48;91.63;98476.50;4980872;28;20230;-72
2021/03/22 05:43:52;;;;;;;13.63;3.37;;;;;;;6.28;94.04;98480.47;4994734;28;20215;-72
2021/03/22 05:46:28;;;;;;;14.90;2.83;;;;;;;6.51;92.81;98487.66;4993897;28;20522;-72
2021/03/22 05:49:34;;;;;;;19.37;3.30;;;;;;;6.45;93.90;98480.31;4994026;28;20203;-73
2021/03/22 05:52:37;;;;;;;12.13;3.10;;;;;;;6.49;92.86;98478.19;4992064;28;20212;-72
2021/03/22 05:55:26;;;;;;;14.60;2.63;;;;;;;6.26;95.07;98477.16;4986957;28;20207;-72
2021/03/22 05:58:24;;;;;;;11.90;2.87;;;;;;;6.26;94.85;98480.63;4987816;28;20236;-73
2021/03/22 06:00:53;;;;;;;10.13;2.97;;;;;;;6.28;93.13;98488.41;4992154;28;20250;-73
2021/03/22 06:03:26;;;;;;;10.30;3.07;;;;;;;6.19;94.64;98484.91;4994934;28;20255;-73
2021/03/22 06:06:01;;;;;;;16.60;3.23;;;;;;;6.40;94.09;98493.22;4992900;28;20224;-73
2021/03/22 06:08:35;;;;;;;15.63;2.93;;;;;;;6.42;96.91;98493.91;4993035;28;20249;-72
2021/03/22 06:11:06;;;;;;;10.53;3.10;;;;;;;6.68;95.93;98485.81;4991506;28;20231;-72
2021/03/22 06:13:39;;;;;;;13.63;3.27;;;;;;;6.61;97.07;98485.63;4991527;28;20217;-73
2021/03/22 06:16:15;;;;;;;12.13;2.90;;;;;;;6.43;98.99;98482.31;4992031;28;20240;-74
2021/03/22 06:18:58;;;;;;;14.93;3.87;;;;;;;6.43;99.53;98494.72;4985008;28;20200;-72
2021/03/22 06:21:28;;;;;;;15.87;3.70;;;;;;;6.36;100.00;98496.38;4982586;28;20234;-73
2021/03/22 06:23:54;;;;;;;23.70;3.90;;;;;;;6.62;98.71;98495.28;4990807;28;20206;-72
2021/03/22 06:26:36;;;;;;;23.30;3.63;;;;;;;6.42;100.00;98501.03;4992246;28;20231;-72
2021/03/22 06:29:11;;;;;;;11.53;3.20;;;;;;;6.67;100.00;98497.44;4988552;28;20296;-73
2021/03/22 06:31:39;;;;;;;18.53;4.00;;;;;;;6.18;100.00;98498.31;4990564;28;20666;-71
2021/03/22 06:34:08;;;;;;;16.30;3.33;;;;;;;6.44;100.00;98504.38;4992095;28;20212;-72
2021/03/22 06:36:36;;;;;;;15.73;3.37;;;;;;;6.30;100.00;98505.00;4990861;28;20213;-81
2021/03/22 06:39:06;;;;;;;17.93;3.60;;;;;;;6.54;100.00;98515.66;4994832;28;20710;-73
2021/03/22 06:41:41;;;;;;;14.83;3.70;;;;;;;6.29;100.00;98506.81;4991654;28;20551;-79
2021/03/22 06:44:12;;;;;;;14.73;2.83;;;;;;;6.72;100.00;98518.97;4987661;28;20315;-74
2021/03/22 06:46:57;;;;;;;19.27;4.20;;;;;;;6.56;100.00;98511.84;4988748;28;20213;-77
2021/03/22 06:49:25;;;;;;;17.77;3.37;;;;;;;6.48;100.00;98519.78;4991747;28;20221;-73
2021/03/22 06:52:00;;;;;;;18.67;3.27;;;;;;;6.63;100.00;98520.78;4993461;28;20205;-73
2021/03/22 06:54:34;;;;;;;20.43;2.70;;;;;;;6.53;100.00;98525.41;4990291;28;20201;-73
2021/03/22 06:57:07;;;;;;;19.90;3.17;;;;;;;6.61;100.00;98530.72;4992017;28;20269;-73
2021/03/22 06:59:35;;;;;;;10.00;2.93;;;;;;;6.82;99.50;98522.31;4991656;28;20239;-74
2021/03/22 07:02:22;;;;;;;13.73;2.73;;;;;;;6.46;100.00;98523.59;4993323;28;20729;-70
2021/03/22 07:04:50;;;;;;;14.57;3.57;;;;;;;6.58;100.00;98525.75;4986141;28;20308;-73
2021/03/22 07:07:19;;;;;;;16.60;3.13;;;;;;;6.43;100.00;98530.03;4988483;28;20237;-73
2021/03/22 07:09:52;;;;;;;17.33;3.77;;;;;;;6.49;100.00;98536.53;4994203;28;20328;-79
2021/03/22 07:12:40;;;;;;;11.93;3.67;;;;;;;6.31;100.00;98536.66;4990272;28;20210;-75
2021/03/22 07:15:23;;;;;;;16.60;2.80;;;;;;;6.65;100.00;98537.34;4991321;28;20216;-71
2021/03/22 07:18:05;;;;;;;16.60;3.80;;;;;;;6.95;96.99;98538.56;4994768;28;20689;-71
2021/03/22 07:20:33;;;;;;;19.83;3.97;;;;;;;7.00;95.44;98539.72;4995164;28;20226;-74
2021/03/22 07:23:38;;;;;;;11.80;3.70;;;;;;;6.88;96.20;98532.25;5001522;28;20610;-73
2021/03/22 07:26:10;;;;;;;18.63;3.13;;;;;;;6.61;96.50;98533.38;4998487;28;20225;-75
2021/03/22 07:28:47;;;;;;;15.60;3.33;;;;;;;7.00;96.22;98531.75;5000118;28;20693;-75
2021/03/22 07:31:24;;;;;;;16.87;2.87;;;;;;;7.14;93.73;98533.75;4996335;28;20231;-75
2021/03/22 07:33:58;;;;;;;18.50;3.07;;;;;;;7.51;91.75;98535.88;5000778;28;20358;-75
2021/03/22 07:36:36;;;;;;;10.87;3.17;;;;;;;7.10;92.02;98545.69;4992766;28;20245;-79
2021/03/22 07:39:28;;;;;;;19.67;3.37;;;;;;;6.93;93.93;98548.50;4995865;28;20204;-79
2021/03/22 07:42:24;;;;;;;14.30;3.10;;;;;;;6.61;95.89;98551.94;4984305;28;20207;-83
2021/03/22 07:45:20;;;;;;;9.67;3.23;;;;;;;6.99;91.93;98548.69;4992048;28;20259;-77
2021/03/22 07:48:00;;;;;;;17.00;2.43;;;;;;;6.87;91.27;98565.09;4990312;28;20652;-77
2021/03/22 07:50:32;;;;;;;13.10;2.73;;;;;;;6.49;94.43;98555.09;4992137;28;20592;-76
2021/03/22 07:53:01;;;;;;;19.03;3.10;;;;;;;6.82;94.21;98562.94;4996089;28;20687;-76
2021/03/22 07:55:46;;;;;;;13.60;3.07;;;;;;;6.39;95.13;98552.56;4992939;28;20202;-77
2021/03/22 07:58:40;;;;;;;10.90;2.80;;;;;;;6.54;94.09;98566.84;4996250;28;20204;-75
2021/03/22 08:01:13;;;;;;;10.63;2.73;;;;;;;6.58;92.06;98567.34;4996523;28;20226;-76
2021/03/22 08:03:57;;;;;;;7.90;2.57;;;;;;;7.43;87.27;98562.44;4995784;28;20229;-75
2021/03/22 08:06:44;;;;;;;9.10;2.40;;;;;;;7.50;84.87;98571.38;4997022;28;20598;-76
2021/03/22 08:09:21;;;;;;;13.57;3.07;;;;;;;7.69;81.68;98576.31;4996540;28;20220;-76
2021/03/22 08:11:51;;;;;;;15.93;2.50;;;;;;;7.85;81.41;98576.28;4994133;28;20273;-75
2021/03/22 08:14:22;;;;;;;13.43;2.80;;;;;;;7.91;81.59;98587.06;4995956;28;20573;-76
2021/03/22 08:17:20;;;;;;;10.20;2.37;;;;;;;7.54;82.80;98586.81;4995992;28;20193;-75
2021/03/22 08:19:51;;;;;;;7.17;2.03;;;;;;;7.87;81.90;98593.72;4950750;28;20354;-76
2021/03/22 08:22:22;;;;;;;10.13;2.30;;;;;;;7.23;85.68;98595.63;4995730;28;20234;-76
2021/03/22 08:25:00;;;;;;;10.07;2.30;;;;;;;7.55;84.54;98603.56;4993910;28;20213;-75
2021/03/22 08:27:29;;;;;;;9.50;2.70;;;;;;;8.06;79.44;98606.63;4995825;28;20219;-75
2021/03/22 08:30:08;;;;;;;10.80;2.43;;;;;;;8.20;78.14;98613.94;4996251;28;20608;-75
2021/03/22 08:32:41;;;;;;;24.93;3.60;;;;;;;7.75;81.15;98613.69;4995974;28;20218;-74
2021/03/22 08:35:16;;;;;;;7.03;2.10;;;;;;;7.30;80.85;98612.56;4995203;28;20207;-75
2021/03/22 08:37:45;;;;;;;9.27;2.23;;;;;;;7.67;79.40;98613.69;4991685;28;20222;-76
2021/03/22 08:40:15;;;;;;;13.00;2.37;;;;;;;7.38;80.54;98629.31;4995636;28;20325;-76
2021/03/22 08:42:46;;;;;;;11.03;2.50;;;;;;;7.10;80.06;98620.00;4993212;28;20208;-84
2021/03/22 08:45:19;;;;;;;10.17;1.90;;;;;;;7.34;80.66;98622.69;4995484;28;20261;-82
2021/03/22 08:47:51;;;;;;;20.03;3.03;;;;;;;7.60;80.89;98611.88;4991506;28;20634;-75
2021/03/22 08:50:22;;;;;;;8.77;1.80;;;;;;;8.10;75.76;98631.03;4995613;28;20230;-74
2021/03/22 08:52:56;;;;;;;16.60;2.20;;;;;;;8.28;75.34;98637.03;4993570;28;20209;-74
2021/03/22 08:55:24;;;;;;;11.87;2.93;;;;;;;8.34;73.91;98631.00;4995274;28;20201;-72
2021/03/22 08:57:58;;;;;;;14.70;2.30;;;;;;;7.89;78.14;98620.97;4997097;28;20203;-72
2021/03/22 09:00:28;;;;;;;9.40;2.00;;;;;;;8.33;73.41;98637.34;4982264;28;20224;-73
2021/03/22 09:02:57;;;;;;;9.70;2.20;;;;;;;8.74;71.24;98644.97;4993502;28;20691;-73
2021/03/22 09:05:28;;;;;;;7.20;2.00;;;;;;;8.10;71.87;98652.31;4988303;28;20210;-73
2021/03/22 09:08:15;;;;;;;10.07;2.23;;;;;;;7.64;76.30;98642.41;4983827;28;20204;-74
2021/03/22 09:10:42;;;;;;;8.33;2.00;;;;;;;7.80;75.89;98635.25;4982565;28;20251;-74
2021/03/22 09:13:28;;;;;;;6.40;1.57;;;;;;;7.30;78.19;98634.63;4991829;28;20210;-75
2021/03/22 09:16:37;;;;;;;2.97;1.23;;;;;;;7.11;83.56;98640.22;4989128;28;20612;-74
2021/03/22 09:19:39;;;;;;;6.93;1.73;;;;;;;7.49;82.06;98638.75;4988646;28;20211;-74
2021/03/22 09:22:35;;;;;;;6.57;1.93;;;;;;;7.37;81.79;98645.41;4986297;28;20220;-74
2021/03/22 09:25:03;;;;;;;8.60;2.00;;;;;;;7.82;76.60;98648.38;4984553;28;20227;-75
2021/03/22 09:27:33;;;;;;;3.03;1.70;;;;;;;7.01;84.53;98636.91;4992593;28;20226;-76
2021/03/22 09:30:39;;;;;;;8.63;2.10;;;;;;;7.51;81.52;98642.91;4990666;28;20276;-73
2021/03/22 09:33:06;;;;;;;9.70;1.80;;;;;;;7.95;78.06;98654.00;4991081;28;20251;-75
2021/03/22 09:36:10;;;;;;;9.13;1.83;;;;;;;8.22;75.73;98665.09;4990998;28;20210;-74
2021/03/22 09:38:48;;;;;;;13.33;2.30;;;;;;;7.96;80.54;98648.53;4995847;28;20214;-76
2021/03/22 09:41:17;;;;;;;10.20;2.43;;;;;;;8.26;78.64;98653.13;4993967;28;20226;-74
2021/03/22 09:43:49;;;;;;;20.73;2.57;;;;;;;7.61;81.33;98638.25;4992589;28;20220;-73
2021/03/22 09:46:25;;;;;;;5.77;2.20;;;;;;;8.08;78.15;98643.69;4993450;28;20234;-74
2021/03/22 09:49:21;;;;;;;8.70;2.23;;;;;;;8.18;78.00;98645.13;4987289;28;20255;-74
2021/03/22 09:51:51;;;;;;;6.17;1.77;;;;;;;8.39;75.13;98661.41;4990876;28;20722;-73
2021/03/22 09:54:49;;;;;;;9.57;1.70;;;;;;;8.36;75.22;98653.78;4983886;28;20675;-73
2021/03/22 09:57:46;;;;;;;12.60;2.53;;;;;;;8.87;71.59;98658.53;4937441;29;20726;-74
2021/03/22 10:00:26;;;;;;;7.63;2.30;;;;;;;8.63;71.36;98658.66;4988089;28;20267;-74
2021/03/22 10:02:55;;;;;;;11.17;2.13;;;;;;;9.04;69.42;98660.09;4983829;28;20197;-74
2021/03/22 10:05:26;;;;;;;7.53;1.97;;;;;;;8.79;74.30;98650.59;4989097;28;20207;-74
2021/03/22 10:08:02;;;;;;;8.60;1.90;;;;;;;8.78;70.06;98659.56;4989661;28;20220;-74
2021/03/22 10:10:37;;;;;;;7.77;2.00;;;;;;;9.49;66.98;98661.97;4991263;28;20294;-74
2021/03/22 10:13:09;;;;;;;9.40;1.80;;;;;;;8.35;71.34;98662.75;4991489;28;20941;-75
2021/03/22 10:15:48;;;;;;;4.20;1.40;;;;;;;8.74;70.02;98663.63;4989902;28;20200;-74
2021/03/22 10:18:21;;;;;;;6.73;1.73;;;;;;;8.78;69.27;98666.75;4992752;28;20210;-75
2021/03/22 10:20:50;;;;;;;5.77;1.73;;;;;;;8.62;68.90;98664.16;4985689;28;20230;-73
2021/03/22 10:23:23;;;;;;;12.27;2.27;;;;;;;8.44;70.25;98664.41;4991633;28;20207;-73
2021/03/22 10:25:59;;;;;;;5.77;1.80;;;;;;;7.88;75.46;98656.53;4987408;28;20231;-73
2021/03/22 10:28:26;;;;;;;7.83;2.10;;;;;;;8.02;76.07;98658.47;4990269;28;20300;-73
2021/03/22 10:30:58;;;;;;;5.80;1.80;;;;;;;7.97;77.80;98657.34;4991197;28;20226;-73
2021/03/22 10:33:26;;;;;;;15.43;1.70;;;;;;;8.44;74.07;98667.06;4992017;28;20212;-73
2021/03/22 10:35:54;;;;;;;6.33;1.87;;;;;;;8.15;78.25;98666.75;4992084;28;20575;-74
2021/03/22 10:38:23;;;;;;;5.23;1.90;;;;;;;8.16;76.43;98663.09;4992893;28;20242;-74
2021/03/22 10:40:51;;;;;;;7.50;2.13;;;;;;;8.24;77.23;98665.78;4989990;28;20763;-74
2021/03/22 10:43:33;;;;;;;7.13;2.20;;;;;;;7.83;79.50;98661.50;4984205;28;20207;-73
2021/03/22 10:46:13;;;;;;;6.43;1.57;;;;;;;7.99;79.40;98668.63;4997604;28;20250;-73
2021/03/22 10:48:40;;;;;;;8.53;2.10;;;;;;;7.80;80.95;98658.34;4990622;28;20707;-77
2021/03/22 10:51:16;;;;;;;8.87;1.90;;;;;;;8.14;80.28;98658.94;4988705;28;20307;-74
2021/03/22 10:53:57;;;;;;;7.00;3.07;;;;;;;8.35;78.46;98667.22;4985697;28;20221;-74
2021/03/22 10:56:30;;;;;;;9.43;2.37;;;;;;;8.27;81.93;98657.44;4991492;28;20212;-74
2021/03/22 10:58:58;;;;;;;8.63;2.47;;;;;;;8.14;80.68;98662.44;4998273;28;20572;-74
2021/03/22 11:01:31;;;;;;;7.90;2.13;;;;;;;7.92;83.52;98651.69;4991618;28;20744;-74
2021/03/22 11:04:05;;;;;;;7.43;2.17;;;;;;;8.17;81.78;98662.09;4991562;28;20202;-74
2021/03/22 11:06:36;;;;;;;7.60;1.97;;;;;;;8.55;77.37;98661.34;4991797;28;20266;-76
2021/03/22 11:09:07;;;;;;;6.50;1.83;;;;;;;8.63;77.59;98661.31;4991730;28;20208;-73
2021/03/22 11:11:35;;;;;;;10.63;1.90;;;;;;;8.05;83.85;98658.16;4987036;28;20276;-74
2021/03/22 11:14:05;;;;;;;7.37;1.70;;;;;;;8.50;77.56;98669.03;4984200;28;20214;-74
2021/03/22 11:16:33;;;;;;;6.27;1.33;;;;;;;8.97;73.54;98675.13;4986612;28;20218;-74
2021/03/22 11:19:07;;;;;;;7.03;1.53;;;;;;;8.22;78.30;98666.94;4985530;28;20207;-83
2021/03/22 11:21:34;;;;;;;4.93;1.80;;;;;;;7.79;78.18;98672.63;4990816;28;20240;-73
2021/03/22 11:24:01;;;;;;;11.27;1.77;;;;;;;7.51;79.32;98673.97;4988230;28;20617;-73
2021/03/22 11:26:29;;;;;;;7.70;1.50;;;;;;;8.33;74.29;98670.06;4986269;28;20706;-72
2021/03/22 11:29:18;;;;;;;6.47;1.60;;;;;;;8.64;74.19;98672.78;4991825;28;20213;-73
2021/03/22 11:31:47;;;;;;;7.27;1.47;;;;;;;8.71;69.42;98677.25;4989204;28;20210;-73
2021/03/22 11:34:16;;;;;;;4.60;1.73;;;;;;;8.07;74.50;98669.44;4990883;28;20312;-74
2021/03/22 11:36:46;;;;;;;6.63;1.87;;;;;;;7.94;78.06;98660.31;4982520;28;20205;-73
2021/03/22 11:39:23;;;;;;;6.70;1.90;;;;;;;8.33;73.96;98663.94;4990487;28;20211;-73
2021/03/22 11:42:17;;;;;;;7.73;2.20;;;;;;;8.74;72.66;98660.94;4992311;28;20215;-76
2021/03/22 11:44:45;;;;;;;7.27;1.80;;;;;;;8.54;73.46;98649.06;4981668;28;20661;-72
2021/03/22 11:47:46;;;;;;;5.20;2.27;;;;;;;8.73;72.94;98653.13;4987835;28;20230;-72
2021/03/22 11:50:30;;;;;;;9.20;1.90;;;;;;;8.80;71.09;98651.44;4970970;28;20232;-74
2021/03/22 11:53:06;;;;;;;7.07;2.10;;;;;;;8.77;75.02;98655.25;4980734;28;20662;-73
2021/03/22 11:55:36;;;;;;;8.40;2.23;;;;;;;9.26;69.21;98653.16;4989012;28;20210;-74
2021/03/22 11:58:04;;;;;;;7.93;1.80;;;;;;;8.53;72.02;98652.69;4991960;28;20200;-79
2021/03/22 12:00:35;;;;;;;8.13;2.33;;;;;;;8.27;75.29;98649.47;4986906;28;20228;-74